Time;durP1;ratioP1;P1;durP2;ratioP2;P2;SDS_P1;SDS_P2;PMS_P1;PMS_P2;Temp;Humidity;BMP_temperature;BMP_pressure;BME280_temperature;BME280_humidity;BME280_pressure;Samples;Min_cycle;Max_cycle;Signal;HPM_P1;HPM_P2
2023/04/05 00:01:37;;;;;;;7.60;6.30;;;;;;;5.47;81.32;100377.79;107938;1254;72865;-76
2023/04/05 00:04:06;;;;;;;8.80;6.50;;;;;;;5.46;81.32;100376.08;107888;1254;61475;-76
2023/04/05 00:06:36;;;;;;;7.70;6.10;;;;;;;5.47;81.29;100371.23;107916;1254;61084;-76
2023/04/05 00:09:06;;;;;;;7.70;6.30;;;;;;;5.47;81.36;100368.99;107721;1256;76777;-77
2023/04/05 00:11:34;;;;;;;6.90;5.30;;;;;;;5.46;81.40;100364.14;108058;1254;72724;-76
2023/04/05 00:14:03;;;;;;;6.90;5.60;;;;;;;5.46;81.48;100355.35;108140;1254;71834;-76
2023/04/05 00:16:32;;;;;;;8.30;5.80;;;;;;;5.44;81.51;100354.03;108103;1254;61400;-77
2023/04/05 00:19:01;;;;;;;7.70;6.30;;;;;;;5.41;81.47;100342.74;107669;1254;59682;-77
2023/04/05 00:21:32;;;;;;;7.70;6.00;;;;;;;5.39;81.50;100344.92;107899;1254;75764;-76
2023/04/05 00:24:04;;;;;;;8.10;5.40;;;;;;;5.39;81.59;100346.91;107965;1254;74303;-76
2023/04/05 00:26:32;;;;;;;7.50;5.70;;;;;;;5.39;81.59;100347.94;107911;1258;73727;-76
2023/04/05 00:29:01;;;;;;;6.80;5.40;;;;;;;5.39;81.53;100348.55;107834;1257;62615;-76
2023/04/05 00:31:30;;;;;;;7.60;5.90;;;;;;;5.39;81.66;100348.73;107896;1257;61514;-76
2023/04/05 00:33:58;;;;;;;6.60;5.50;;;;;;;5.38;81.63;100341.88;107921;1255;75604;-75
2023/04/05 00:36:26;;;;;;;6.90;5.40;;;;;;;5.40;81.73;100339.74;107816;1257;72501;-75
2023/04/05 00:38:55;;;;;;;7.70;5.30;;;;;;;5.42;81.66;100338.58;107850;1255;71653;-76
2023/04/05 00:41:24;;;;;;;7.90;5.10;;;;;;;5.62;81.03;100338.11;107828;1254;61989;-76
2023/04/05 00:43:52;;;;;;;7.90;5.90;;;;;;;5.68;80.67;100329.11;107834;1254;61132;-76
2023/04/05 00:46:21;;;;;;;6.70;5.40;;;;;;;5.69;80.57;100319.83;107917;1254;75646;-75
2023/04/05 00:48:50;;;;;;;6.90;4.90;;;;;;;5.70;80.43;100312.43;107762;1254;72214;-75
2023/04/05 00:51:19;;;;;;;6.40;4.50;;;;;;;5.70;80.31;100310.23;107740;1254;73439;-76
2023/04/05 00:53:51;;;;;;;6.20;4.70;;;;;;;5.66;80.25;100306.02;107788;1254;61917;-76
2023/04/05 00:56:20;;;;;;;6.20;4.40;;;;;;;5.64;80.21;100304.71;107943;1254;61124;-76
2023/04/05 00:58:55;;;;;;;6.80;4.40;;;;;;;5.63;80.26;100308.20;107779;1260;73855;-75
2023/04/05 01:01:25;;;;;;;7.30;4.80;;;;;;;5.63;80.10;100307.50;107932;1254;73844;-76
2023/04/05 01:04:01;;;;;;;6.90;4.60;;;;;;;5.62;80.17;100310.77;107757;1254;73168;-76
2023/04/05 01:06:47;;;;;;;6.10;4.50;;;;;;;5.62;80.18;100309.02;107652;1256;61067;-76
2023/04/05 01:09:44;;;;;;;7.20;5.00;;;;;;;5.62;80.15;100309.59;107698;1254;61593;-76
2023/04/05 01:12:16;;;;;;;9.60;5.20;;;;;;;5.64;80.18;100311.33;107883;1254;76009;-75
2023/04/05 01:14:49;;;;;;;8.10;4.90;;;;;;;5.65;80.21;100306.90;107656;1254;73693;-76
2023/04/05 01:17:21;;;;;;;6.30;4.20;;;;;;;5.65;80.18;100303.79;107928;1254;72879;-76
2023/04/05 01:19:52;;;;;;;5.20;3.80;;;;;;;5.68;80.12;100308.34;107926;1256;62032;-76
2023/04/05 01:22:48;;;;;;;5.40;3.70;;;;;;;5.70;80.19;100306.08;107930;1255;61300;-76
2023/04/05 01:25:48;;;;;;;5.40;3.90;;;;;;;5.72;80.13;100298.95;107902;1254;74133;-76
2023/04/05 01:28:44;;;;;;;6.00;4.20;;;;;;;5.75;80.15;100293.91;107901;1257;70766;-76
2023/04/05 01:31:35;;;;;;;6.20;4.20;;;;;;;5.75;80.12;100297.10;107840;1257;71825;-75
2023/04/05 01:34:13;;;;;;;6.60;4.50;;;;;;;5.73;80.06;100288.55;107893;1254;59464;-75
2023/04/05 01:36:45;;;;;;;6.40;4.60;;;;;;;5.72;80.06;100288.94;108122;1257;61385;-75
2023/04/05 01:39:14;;;;;;;5.90;4.40;;;;;;;5.73;80.13;100287.07;108279;1254;74675;-76
2023/04/05 01:41:42;;;;;;;6.80;4.40;;;;;;;5.74;80.01;100284.31;108006;1254;73995;-76
2023/04/05 01:44:14;;;;;;;5.90;4.30;;;;;;;5.76;80.06;100272.53;107815;1254;73952;-76
2023/04/05 01:46:43;;;;;;;6.20;4.40;;;;;;;5.75;80.09;100264.46;107914;1254;62201;-76
2023/04/05 01:49:14;;;;;;;5.50;4.10;;;;;;;5.75;80.05;100258.58;107967;1254;61113;-77
2023/04/05 01:51:42;;;;;;;5.80;4.20;;;;;;;5.74;80.03;100255.16;107720;1256;73097;-76
2023/04/05 01:54:10;;;;;;;6.10;4.00;;;;;;;5.76;80.05;100258.11;107754;1254;71823;-76
2023/04/05 01:56:39;;;;;;;5.80;4.00;;;;;;;5.74;79.97;100256.87;107748;1254;72869;-75
2023/04/05 01:59:08;;;;;;;4.80;3.50;;;;;;;5.71;80.00;100252.19;107964;1254;61358;-76
2023/04/05 02:01:38;;;;;;;5.30;3.70;;;;;;;5.70;80.04;100248.52;107913;1254;61272;-75
2023/04/05 02:04:07;;;;;;;6.00;3.70;;;;;;;5.70;80.03;100253.58;108173;1254;75571;-76
2023/04/05 02:06:39;;;;;;;5.70;3.30;;;;;;;5.68;80.07;100256.73;108095;1254;74035;-76
2023/04/05 02:09:09;;;;;;;5.70;3.80;;;;;;;5.69;80.13;100246.95;108046;1254;73906;-76
2023/04/05 02:11:40;;;;;;;6.30;4.30;;;;;;;5.67;80.20;100246.64;108011;1254;61262;-76
2023/04/05 02:14:11;;;;;;;5.40;3.50;;;;;;;5.66;80.21;100244.23;107840;1254;61157;-77
2023/04/05 02:16:43;;;;;;;5.40;3.60;;;;;;;5.65;80.25;100240.71;108115;1254;73744;-76
2023/04/05 02:19:14;;;;;;;4.90;3.20;;;;;;;5.66;80.22;100239.90;108171;1254;70542;-76
2023/04/05 02:21:46;;;;;;;5.70;3.50;;;;;;;5.67;80.24;100236.63;108077;1254;72618;-76
2023/04/05 02:24:15;;;;;;;4.60;3.20;;;;;;;5.68;80.23;100231.27;108136;1257;61519;-76
2023/04/05 02:26:45;;;;;;;5.30;3.10;;;;;;;5.68;80.31;100235.33;108027;1256;61106;-77
2023/04/05 02:29:14;;;;;;;3.90;2.80;;;;;;;5.68;80.33;100233.84;108170;1256;75675;-77
2023/04/05 02:31:49;;;;;;;4.50;2.90;;;;;;;5.67;80.32;100228.11;108096;1254;72247;-77
2023/04/05 02:34:22;;;;;;;5.30;3.10;;;;;;;5.67;80.31;100218.04;108110;1254;72369;-77
2023/04/05 02:36:54;;;;;;;5.50;3.00;;;;;;;5.69;80.35;100222.39;108077;1254;61334;-77
2023/04/05 02:39:37;;;;;;;4.40;3.20;;;;;;;5.69;80.35;100223.52;107885;1254;61131;-77
2023/04/05 02:42:09;;;;;;;4.90;2.90;;;;;;;5.69;80.32;100229.08;107799;1254;72584;-77
2023/04/05 02:44:41;;;;;;;4.50;3.10;;;;;;;5.71;80.34;100229.77;108031;1256;73773;-77
2023/04/05 02:47:20;;;;;;;5.70;3.80;;;;;;;5.73;80.36;100228.38;107994;1259;72543;-77
2023/04/05 02:50:06;;;;;;;5.20;3.70;;;;;;;5.73;80.33;100224.13;108046;1254;61237;-77
2023/04/05 02:53:04;;;;;;;6.00;3.70;;;;;;;5.73;80.31;100224.61;107965;1254;61276;-78
2023/04/05 02:56:00;;;;;;;6.40;3.80;;;;;;;5.70;80.22;100214.77;108131;1258;74700;-78
2023/04/05 02:58:48;;;;;;;5.10;3.30;;;;;;;5.68;80.27;100218.09;107990;1254;73693;-88
2023/04/05 03:01:43;;;;;;;4.50;3.40;;;;;;;5.67;80.25;100225.29;108223;1254;71444;-89
2023/04/05 03:04:33;;;;;;;4.70;3.40;;;;;;;5.69;80.32;100232.10;108166;1254;61275;-88
2023/04/05 03:07:17;;;;;;;5.70;3.70;;;;;;;5.71;80.24;100235.01;108148;1254;61134;-88
2023/04/05 03:09:53;;;;;;;5.30;4.10;;;;;;;5.71;80.38;100232.89;108050;1254;75506;-87
2023/04/05 03:12:32;;;;;;;5.50;4.40;;;;;;;5.69;80.24;100239.88;107888;1254;73156;-87
2023/04/05 03:15:12;;;;;;;6.90;4.10;;;;;;;5.67;80.26;100236.09;108109;1254;72078;-89
2023/04/05 03:17:50;;;;;;;6.90;4.10;;;;;;;5.64;80.24;100232.48;107956;1254;61155;-88
2023/04/05 03:20:28;;;;;;;7.60;4.20;;;;;;;5.62;80.31;100231.45;107910;1254;61205;-87
2023/04/05 03:23:15;;;;;;;6.30;3.80;;;;;;;5.63;80.31;100235.48;107878;1260;75438;-88
2023/04/05 03:26:19;;;;;;;6.10;4.10;;;;;;;5.64;80.29;100240.02;107947;1254;73093;-88
2023/04/05 03:29:05;;;;;;;7.50;4.10;;;;;;;5.64;80.36;100241.23;108096;1254;72281;-89
2023/04/05 03:32:03;;;;;;;6.50;4.20;;;;;;;5.63;80.36;100238.23;107926;1256;62491;-89
2023/04/05 03:34:52;;;;;;;6.90;4.70;;;;;;;5.63;80.34;100233.40;107859;1256;61138;-86
2023/04/05 03:37:34;;;;;;;6.60;4.30;;;;;;;5.61;80.37;100221.92;108097;1257;75911;-87
2023/04/05 03:40:30;;;;;;;6.10;4.10;;;;;;;5.60;80.46;100216.40;107971;1254;72022;-86
2023/04/05 03:43:24;;;;;;;6.10;4.10;;;;;;;5.61;80.50;100219.27;107841;1254;73625;-85
2023/04/05 03:46:24;;;;;;;5.10;3.40;;;;;;;5.61;80.56;100220.34;107782;1254;61968;-88
2023/04/05 03:49:23;;;;;;;5.00;3.30;;;;;;;5.60;80.55;100220.00;107907;1254;61134;-89
2023/04/05 03:52:11;;;;;;;4.80;3.10;;;;;;;5.59;80.56;100216.91;108052;1255;75967;-88
2023/04/05 03:55:09;;;;;;;5.00;3.20;;;;;;;5.60;80.65;100220.00;108072;1254;73725;-85
2023/04/05 03:57:55;;;;;;;4.40;3.10;;;;;;;5.60;80.63;100211.85;108054;1259;73873;-87
2023/04/05 04:00:51;;;;;;;4.90;3.30;;;;;;;5.60;80.63;100203.63;107718;1262;61274;-87
2023/04/05 04:03:39;;;;;;;5.10;3.00;;;;;;;5.59;80.62;100206.23;108059;1254;61125;-90
2023/04/05 04:06:14;;;;;;;4.20;3.00;;;;;;;5.60;80.75;100210.67;108061;1254;75656;-90
2023/04/05 04:08:58;;;;;;;6.80;3.50;;;;;;;5.61;80.76;100212.07;107785;1255;72302;-88
2023/04/05 04:12:00;;;;;;;4.90;3.60;;;;;;;5.61;80.76;100217.95;107848;1254;73712;-87
2023/04/05 04:15:09;;;;;;;5.90;4.00;;;;;;;5.60;80.80;100207.77;107963;1254;62233;-91
2023/04/05 04:18:07;;;;;;;5.10;3.30;;;;;;;5.59;80.70;100197.59;107833;1254;61207;-91
2023/04/05 04:20:55;;;;;;;5.70;3.70;;;;;;;5.58;80.77;100205.80;108106;1254;74599;-91
2023/04/05 04:24:06;;;;;;;4.80;3.70;;;;;;;5.57;80.78;100211.77;108903;1255;72162;-88
2023/04/05 04:26:54;;;;;;;6.00;3.70;;;;;;;5.58;80.73;100211.84;108465;1254;71700;-84
2023/04/05 04:30:21;;;;;;;5.90;3.40;;;;;;;5.58;80.78;100206.65;108079;1259;61135;-83
2023/04/05 04:33:06;;;;;;;7.20;3.80;;;;;;;5.57;80.75;100206.95;108107;1254;61526;-84
2023/04/05 04:36:33;;;;;;;5.40;3.60;;;;;;;5.56;80.80;100201.65;107802;1257;75117;-82
2023/04/05 04:39:54;;;;;;;5.60;3.60;;;;;;;5.55;80.80;100203.41;107903;1256;71484;-83
2023/04/05 04:43:08;;;;;;;4.90;3.50;;;;;;;5.54;80.75;100203.77;108106;1254;72206;-81
2023/04/05 04:46:19;;;;;;;5.90;4.00;;;;;;;5.52;80.77;100212.39;107825;1254;61428;-80
2023/04/05 04:49:20;;;;;;;5.90;3.90;;;;;;;5.52;80.82;100213.45;107835;1254;61037;-81
2023/04/05 04:52:02;;;;;;;4.70;3.30;;;;;;;5.51;80.87;100210.11;107999;1254;75336;-81
2023/04/05 04:54:51;;;;;;;4.90;3.60;;;;;;;5.51;80.94;100216.09;108074;1256;71358;-80
2023/04/05 04:57:50;;;;;;;4.90;3.20;;;;;;;5.52;80.90;100218.11;108060;1258;73022;-82
2023/04/05 05:00:47;;;;;;;4.70;3.20;;;;;;;5.52;80.94;100213.58;107967;1254;61372;-82
2023/04/05 05:03:30;;;;;;;5.40;4.10;;;;;;;5.52;80.92;100216.06;108003;1254;61133;-81
2023/04/05 05:06:00;;;;;;;5.20;4.10;;;;;;;5.54;81.02;100221.82;108061;1254;74905;-81
2023/04/05 05:08:32;;;;;;;5.10;3.60;;;;;;;5.54;80.97;100220.40;108082;1256;72281;-81
2023/04/05 05:11:06;;;;;;;4.50;3.10;;;;;;;5.54;81.03;100216.95;107995;1254;71930;-80
2023/04/05 05:13:35;;;;;;;4.90;3.80;;;;;;;5.54;80.97;100206.67;108075;1255;61141;-81
2023/04/05 05:16:04;;;;;;;5.40;3.60;;;;;;;5.54;81.08;100199.52;108087;1254;61273;-81
2023/04/05 05:18:39;;;;;;;6.30;4.50;;;;;;;5.55;81.09;100196.89;108155;1254;74725;-85
2023/04/05 05:21:07;;;;;;;5.20;3.10;;;;;;;5.56;81.14;100194.67;107946;1254;72588;-80
2023/04/05 05:23:35;;;;;;;4.80;3.00;;;;;;;5.56;81.10;100191.78;108135;1258;72203;-82
2023/04/05 05:26:04;;;;;;;4.40;2.80;;;;;;;5.56;81.11;100191.09;107974;1255;61584;-81
2023/04/05 05:28:32;;;;;;;5.80;3.30;;;;;;;5.57;81.16;100197.27;108130;1257;61173;-82
2023/04/05 05:31:02;;;;;;;5.10;3.00;;;;;;;5.60;81.18;100197.42;108093;1257;72632;-81
2023/04/05 05:33:35;;;;;;;4.50;2.90;;;;;;;5.61;81.25;100198.56;108051;1254;73024;-81
2023/04/05 05:36:04;;;;;;;4.80;3.10;;;;;;;5.62;81.17;100200.23;108163;1254;72808;-81
2023/04/05 05:38:33;;;;;;;4.50;2.90;;;;;;;5.62;81.16;100196.93;108089;1254;61595;-79
2023/04/05 05:41:01;;;;;;;4.40;2.90;;;;;;;5.61;81.24;100193.05;108139;1254;59862;-80
2023/04/05 05:43:30;;;;;;;4.50;3.20;;;;;;;5.60;81.29;100181.70;108149;1254;75702;-81
2023/04/05 05:46:01;;;;;;;4.10;2.60;;;;;;;5.62;81.28;100183.05;108158;1258;70541;-81
2023/04/05 05:48:32;;;;;;;4.60;3.00;;;;;;;5.63;81.30;100180.97;108317;1254;71838;-81
2023/04/05 05:51:00;;;;;;;4.20;2.80;;;;;;;5.64;81.28;100177.38;108245;1256;61259;-80
2023/04/05 05:53:31;;;;;;;3.90;2.50;;;;;;;5.67;81.33;100178.17;108442;1255;61144;-80
2023/04/05 05:56:00;;;;;;;3.90;2.50;;;;;;;5.68;81.42;100179.45;108218;1255;75183;-79
2023/04/05 05:58:30;;;;;;;4.60;2.70;;;;;;;5.72;81.46;100172.29;108331;1254;72920;-80
2023/04/05 06:00:58;;;;;;;4.10;2.40;;;;;;;5.77;81.36;100165.50;108667;1254;72450;-80
2023/04/05 06:03:32;;;;;;;4.10;2.50;;;;;;;5.80;81.42;100163.77;108483;1254;61196;-80
2023/04/05 06:06:04;;;;;;;4.00;2.40;;;;;;;5.85;81.39;100160.36;108452;1254;61165;-79
2023/04/05 06:08:33;;;;;;;4.40;2.90;;;;;;;5.91;81.42;100164.29;108052;1254;75681;-79
2023/04/05 06:11:01;;;;;;;5.00;2.90;;;;;;;5.96;81.44;100167.92;108094;1254;73515;-81
2023/04/05 06:13:30;;;;;;;5.00;3.20;;;;;;;5.97;81.41;100168.98;107986;1257;73841;-80
2023/04/05 06:16:04;;;;;;;4.20;2.80;;;;;;;5.98;81.41;100165.52;108034;1256;62088;-81
2023/04/05 06:18:33;;;;;;;4.80;3.00;;;;;;;5.99;81.33;100162.30;108132;1254;61377;-80
2023/04/05 06:21:01;;;;;;;5.70;2.90;;;;;;;6.00;81.35;100166.04;108079;1256;74775;-78
2023/04/05 06:23:29;;;;;;;4.50;3.10;;;;;;;6.01;81.42;100167.48;108035;1256;73093;-80
2023/04/05 06:25:58;;;;;;;4.90;3.00;;;;;;;6.02;81.37;100163.38;108033;1258;72598;-79
2023/04/05 06:28:26;;;;;;;4.40;3.00;;;;;;;6.06;81.41;100171.08;108121;1254;61165;-81
2023/04/05 06:30:56;;;;;;;3.90;2.50;;;;;;;6.11;81.38;100171.55;108029;1254;61132;-78
2023/04/05 06:33:25;;;;;;;3.90;2.60;;;;;;;6.16;81.36;100177.20;108097;1258;75890;-78
2023/04/05 06:35:54;;;;;;;4.90;3.10;;;;;;;6.17;81.33;100181.63;108069;1254;73197;-79
2023/04/05 06:38:22;;;;;;;5.80;3.50;;;;;;;6.17;81.36;100181.05;108106;1258;73472;-77
2023/04/05 06:40:51;;;;;;;4.60;2.90;;;;;;;6.18;81.30;100177.35;108017;1255;61656;-79
2023/04/05 06:43:19;;;;;;;5.30;3.60;;;;;;;6.18;81.23;100177.55;108084;1254;60887;-79
2023/04/05 06:45:48;;;;;;;4.70;3.10;;;;;;;6.19;81.21;100178.49;108033;1256;75638;-79
2023/04/05 06:48:17;;;;;;;5.10;3.10;;;;;;;6.20;81.23;100176.10;108120;1254;71828;-78
2023/04/05 06:50:46;;;;;;;4.70;3.10;;;;;;;6.22;81.16;100176.73;108134;1258;73088;-78
2023/04/05 06:53:17;;;;;;;4.70;3.20;;;;;;;6.25;81.20;100173.66;108098;1254;61188;-77
2023/04/05 06:55:50;;;;;;;4.10;2.70;;;;;;;6.29;81.28;100176.77;108040;1259;61173;-78
2023/04/05 06:58:18;;;;;;;4.60;2.80;;;;;;;6.33;81.21;100169.66;108075;1257;74294;-78
2023/04/05 07:00:50;;;;;;;4.90;3.30;;;;;;;6.36;81.23;100168.97;107722;1255;73083;-78
2023/04/05 07:03:25;;;;;;;4.50;3.00;;;;;;;6.40;81.24;100169.05;108036;1257;72023;-78
2023/04/05 07:05:55;;;;;;;4.30;3.00;;;;;;;6.43;81.20;100167.51;107987;1256;61389;-79
2023/04/05 07:08:24;;;;;;;4.70;3.20;;;;;;;6.47;81.26;100164.60;108176;1255;61073;-79
2023/04/05 07:10:54;;;;;;;6.30;3.60;;;;;;;6.49;81.22;100166.92;108085;1254;74457;-78
2023/04/05 07:13:23;;;;;;;5.40;3.50;;;;;;;6.52;81.16;100164.63;108167;1254;73266;-79
2023/04/05 07:15:58;;;;;;;4.80;3.40;;;;;;;6.54;81.12;100160.48;108130;1257;72985;-80
2023/04/05 07:18:28;;;;;;;9.00;4.80;;;;;;;6.57;81.11;100156.70;107794;1257;61106;-79
2023/04/05 07:20:59;;;;;;;5.80;4.10;;;;;;;6.63;81.19;100156.16;108061;1254;61169;-79
2023/04/05 07:23:33;;;;;;;8.00;5.00;;;;;;;6.69;81.15;100157.06;108110;1254;74011;-79
2023/04/05 07:26:03;;;;;;;6.10;4.30;;;;;;;6.73;81.09;100164.12;108018;1255;71871;-78
2023/04/05 07:28:34;;;;;;;7.30;4.60;;;;;;;6.74;80.99;100163.14;108152;1254;73678;-79
2023/04/05 07:31:04;;;;;;;6.90;4.90;;;;;;;6.75;81.03;100161.66;107968;1257;61252;-79
2023/04/05 07:33:33;;;;;;;7.80;5.30;;;;;;;6.74;80.89;100153.80;108119;1257;61145;-79
2023/04/05 07:36:02;;;;;;;7.00;5.00;;;;;;;6.72;80.87;100154.52;108050;1254;74699;-79
2023/04/05 07:38:31;;;;;;;7.30;4.80;;;;;;;6.74;80.84;100159.64;108018;1255;74969;-80
2023/04/05 07:41:01;;;;;;;7.10;4.80;;;;;;;6.77;80.88;100157.52;108007;1259;73757;-81
2023/04/05 07:43:29;;;;;;;6.70;5.00;;;;;;;6.79;80.82;100156.70;107981;1257;62279;-81
2023/04/05 07:46:04;;;;;;;7.80;4.90;;;;;;;6.83;80.75;100164.13;85150;1259;10003171;-80
2023/04/05 07:48:32;;;;;;;6.80;5.40;;;;;;;6.87;80.86;100175.29;107580;1258;61317;-82
2023/04/05 07:51:06;;;;;;;6.50;4.80;;;;;;;6.88;80.81;100176.21;107660;1257;74258;-81
2023/04/05 07:53:37;;;;;;;6.90;5.00;;;;;;;6.91;80.81;100178.06;107655;1259;73653;-82
2023/04/05 07:56:06;;;;;;;6.10;4.70;;;;;;;6.92;80.77;100172.82;107643;1258;72351;-81
2023/04/05 07:58:40;;;;;;;7.90;5.10;;;;;;;6.91;80.80;100169.76;107628;1260;61157;-82
2023/04/05 08:01:09;;;;;;;10.60;5.20;;;;;;;6.91;80.78;100168.83;107612;1258;61428;-81
2023/04/05 08:03:38;;;;;;;7.80;4.70;;;;;;;6.94;80.85;100166.96;107644;1259;74768;-81
2023/04/05 08:06:10;;;;;;;8.00;5.60;;;;;;;6.95;80.86;100171.23;107556;1257;71206;-81
2023/04/05 08:08:40;;;;;;;11.80;6.90;;;;;;;6.96;80.81;100171.77;107424;1258;72562;-81
2023/04/05 08:11:10;;;;;;;14.10;7.50;;;;;;;6.97;80.83;100170.83;107583;1261;61654;-81
2023/04/05 08:13:42;;;;;;;10.70;6.10;;;;;;;6.97;80.85;100169.38;107545;1258;61080;-81
2023/04/05 08:16:10;;;;;;;8.40;5.80;;;;;;;6.94;80.94;100167.48;107576;1259;75665;-81
2023/04/05 08:18:41;;;;;;;7.40;5.50;;;;;;;6.93;81.02;100167.59;107997;1257;72293;-81
2023/04/05 08:21:09;;;;;;;7.00;4.90;;;;;;;6.96;81.11;100173.14;108110;1258;72093;-79
2023/04/05 08:23:40;;;;;;;6.20;4.60;;;;;;;6.98;81.13;100174.02;108026;1255;62413;-82
2023/04/05 08:26:09;;;;;;;7.00;4.80;;;;;;;6.97;81.12;100174.59;108100;1257;61454;-82
2023/04/05 08:28:37;;;;;;;7.50;5.10;;;;;;;6.97;81.13;100173.48;108091;1255;74423;-81
2023/04/05 08:31:06;;;;;;;6.90;5.10;;;;;;;6.96;81.19;100169.64;107987;1257;72727;-82
2023/04/05 08:33:35;;;;;;;8.50;5.90;;;;;;;6.95;81.31;100165.76;108008;1257;73354;-81
2023/04/05 08:36:07;;;;;;;7.50;5.80;;;;;;;6.94;81.35;100164.09;108240;1257;61213;-80
2023/04/05 08:38:37;;;;;;;8.10;5.80;;;;;;;6.97;81.44;100169.86;108187;1256;61330;-83
2023/04/05 08:41:20;;;;;;;8.20;6.30;;;;;;;7.00;81.49;100172.77;107873;1254;74779;-82
2023/04/05 08:43:58;;;;;;;7.10;5.50;;;;;;;7.03;81.51;100173.26;108103;1255;72029;-83
2023/04/05 08:46:26;;;;;;;8.20;6.20;;;;;;;7.07;81.60;100176.55;108009;1254;73453;-83
2023/04/05 08:48:57;;;;;;;7.20;5.60;;;;;;;7.10;81.66;100170.48;107894;1255;61624;-84
2023/04/05 08:51:25;;;;;;;8.60;6.70;;;;;;;7.13;81.76;100172.86;108115;1254;61241;-83
2023/04/05 08:53:54;;;;;;;8.40;6.70;;;;;;;7.15;81.74;100169.92;108053;1254;75499;-81
2023/04/05 08:56:27;;;;;;;7.60;6.20;;;;;;;7.19;81.83;100165.35;107707;1257;74011;-82
2023/04/05 08:59:04;;;;;;;8.20;6.30;;;;;;;7.24;81.81;100165.96;107701;1256;72176;-82
2023/04/05 09:01:35;;;;;;;8.30;6.40;;;;;;;7.28;81.80;100165.22;107915;1257;61221;-82
2023/04/05 09:04:06;;;;;;;8.60;6.20;;;;;;;7.31;81.85;100162.40;107950;1254;61205;-83
2023/04/05 09:06:35;;;;;;;7.60;6.10;;;;;;;7.34;81.86;100160.94;107895;1257;74556;-81
2023/04/05 09:09:07;;;;;;;7.60;5.70;;;;;;;7.39;81.89;100160.80;107837;1257;73672;-81
2023/04/05 09:11:37;;;;;;;8.50;6.30;;;;;;;7.43;81.89;100159.68;107953;1258;73847;-81
2023/04/05 09:14:05;;;;;;;7.90;5.80;;;;;;;7.46;81.82;100159.89;107984;1257;60500;-82
2023/04/05 09:16:39;;;;;;;9.10;6.60;;;;;;;7.49;81.87;100160.30;107963;1257;61263;-83
2023/04/05 09:19:09;;;;;;;8.40;6.60;;;;;;;7.51;81.92;100155.17;107921;1258;73709;-81
2023/04/05 09:21:56;;;;;;;7.70;6.20;;;;;;;7.54;81.87;100157.76;108099;1254;72851;-81
2023/04/05 09:24:40;;;;;;;8.40;6.20;;;;;;;7.54;81.78;100155.31;108082;1255;73306;-82
2023/04/05 09:27:13;;;;;;;8.70;6.20;;;;;;;7.58;81.87;100156.48;108064;1255;61225;-81
2023/04/05 09:29:46;;;;;;;8.00;6.30;;;;;;;7.61;81.89;100150.23;108036;1257;61142;-81
2023/04/05 09:32:17;;;;;;;8.70;6.60;;;;;;;7.65;81.99;100151.61;108091;1257;75332;-82
2023/04/05 09:34:46;;;;;;;9.80;6.20;;;;;;;7.72;82.13;100150.10;108140;1254;72984;-80
2023/04/05 09:37:29;;;;;;;8.60;6.30;;;;;;;7.82;82.19;100145.55;108108;1259;73888;-81
2023/04/05 09:40:03;;;;;;;9.00;6.70;;;;;;;7.89;82.15;100140.20;108107;1254;62957;-80
2023/04/05 09:42:43;;;;;;;9.90;6.80;;;;;;;7.96;82.29;100141.19;108104;1259;61437;-81
2023/04/05 09:45:17;;;;;;;9.60;7.40;;;;;;;8.04;82.31;100136.86;108099;1256;75245;-81
2023/04/05 09:48:01;;;;;;;8.70;6.90;;;;;;;8.11;82.20;100136.03;108167;1254;72355;-81
2023/04/05 09:50:30;;;;;;;8.20;7.00;;;;;;;8.17;82.21;100138.64;108169;1254;73950;-80
2023/04/05 09:53:06;;;;;;;9.50;7.20;;;;;;;8.24;82.13;100136.35;107976;1257;61361;-80
2023/04/05 09:55:35;;;;;;;9.60;7.40;;;;;;;8.27;82.14;100133.31;108048;1257;62286;-81
2023/04/05 09:58:04;;;;;;;9.70;7.40;;;;;;;8.32;82.12;100139.84;108111;1257;75832;-82
2023/04/05 10:00:32;;;;;;;10.40;7.20;;;;;;;8.36;82.04;100138.85;107914;1257;70589;-80
2023/04/05 10:03:04;;;;;;;9.00;7.70;;;;;;;8.37;82.00;100136.08;107849;1255;72827;-80
2023/04/05 10:05:43;;;;;;;10.70;7.50;;;;;;;8.43;82.05;100136.14;108005;1257;62105;-80
2023/04/05 10:08:13;;;;;;;9.30;7.20;;;;;;;8.49;81.92;100137.36;108036;1255;61130;-84
2023/04/05 10:10:45;;;;;;;9.80;7.60;;;;;;;8.53;81.88;100136.05;108201;1254;75039;-82
2023/04/05 10:13:14;;;;;;;10.20;7.80;;;;;;;8.54;81.83;100137.14;108216;1256;72548;-80
2023/04/05 10:15:46;;;;;;;12.10;8.40;;;;;;;8.56;81.72;100133.55;104049;1260;5229507;-80
2023/04/05 10:18:17;;;;;;;12.20;8.60;;;;;;;8.60;81.71;100128.45;108050;1256;61365;-83
2023/04/05 10:20:49;;;;;;;10.90;8.10;;;;;;;8.66;81.83;100124.94;107892;1255;59665;-80
2023/04/05 10:23:26;;;;;;;11.40;8.30;;;;;;;8.74;81.71;100130.31;108132;1254;74982;-81
2023/04/05 10:26:01;;;;;;;11.00;8.70;;;;;;;8.76;81.52;100131.09;108092;1258;73732;-80
2023/04/05 10:28:36;;;;;;;12.10;9.30;;;;;;;8.76;81.47;100132.58;108169;1257;72107;-80
2023/04/05 10:31:16;;;;;;;13.30;9.30;;;;;;;8.79;81.50;100127.64;108073;1259;62016;-80
2023/04/05 10:34:12;;;;;;;11.20;8.80;;;;;;;8.84;81.41;100125.59;108003;1257;61110;-81
2023/04/05 10:36:52;;;;;;;10.70;8.60;;;;;;;8.89;81.51;100123.94;108068;1257;75680;-80
2023/04/05 10:39:39;;;;;;;11.10;8.90;;;;;;;8.95;81.42;100122.38;108029;1254;72853;-81
2023/04/05 10:42:19;;;;;;;12.30;9.20;;;;;;;9.05;81.54;100123.88;108138;1259;73837;-80
2023/04/05 10:44:52;;;;;;;10.90;8.60;;;;;;;9.16;81.47;100122.82;108089;1256;62737;-81
2023/04/05 10:47:21;;;;;;;15.80;10.00;;;;;;;9.27;81.54;100120.00;108037;1258;61192;-79
2023/04/05 10:49:52;;;;;;;11.60;9.80;;;;;;;9.36;81.39;100121.64;108114;1257;73480;-80
2023/04/05 10:52:21;;;;;;;12.50;9.60;;;;;;;9.45;81.34;100124.95;108135;1259;72337;-81
2023/04/05 10:54:51;;;;;;;14.10;10.30;;;;;;;9.53;81.29;100120.13;108107;1255;72975;-80
2023/04/05 10:57:19;;;;;;;13.00;10.10;;;;;;;9.62;81.34;100118.99;107746;1257;63030;-80
2023/04/05 10:59:48;;;;;;;14.00;10.90;;;;;;;9.69;81.22;100114.27;108308;1257;61250;-81
2023/04/05 11:02:22;;;;;;;14.20;10.30;;;;;;;9.78;81.09;100118.66;107804;1257;75717;-80
2023/04/05 11:04:55;;;;;;;13.70;11.00;;;;;;;9.83;80.86;100117.14;108077;1257;73987;-80
2023/04/05 11:07:24;;;;;;;12.90;10.30;;;;;;;9.83;80.67;100115.16;108040;1258;72688;-80
2023/04/05 11:09:59;;;;;;;12.80;10.70;;;;;;;9.84;80.47;100114.10;107956;1255;63358;-80
2023/04/05 11:12:47;;;;;;;13.20;11.00;;;;;;;9.87;80.54;100111.81;107866;1255;61234;-80
2023/04/05 11:15:28;;;;;;;12.20;10.00;;;;;;;9.93;80.43;100111.94;107937;1257;74285;-80
2023/04/05 11:18:14;;;;;;;14.40;11.40;;;;;;;9.96;80.44;100115.04;107754;1256;73097;-80
2023/04/05 11:20:44;;;;;;;13.60;10.60;;;;;;;9.97;80.49;100112.27;107978;1256;72827;-79
2023/04/05 11:23:14;;;;;;;12.10;10.40;;;;;;;9.99;80.49;100115.32;108002;1254;61185;-80
2023/04/05 11:25:53;;;;;;;13.90;10.30;;;;;;;10.01;80.32;100111.69;108123;1256;61150;-81
2023/04/05 11:28:30;;;;;;;13.20;10.50;;;;;;;10.04;80.31;100114.79;108075;1258;75817;-80
2023/04/05 11:31:11;;;;;;;13.80;10.40;;;;;;;10.07;80.23;100116.83;108060;1257;71877;-80
2023/04/05 11:33:43;;;;;;;12.80;10.90;;;;;;;10.10;80.19;100117.25;108138;1259;72673;-80
2023/04/05 11:36:35;;;;;;;12.50;10.30;;;;;;;10.11;79.95;100114.60;108047;1257;61223;-82
2023/04/05 11:39:22;;;;;;;12.30;10.60;;;;;;;10.12;79.95;100112.73;108168;1254;61492;-79
2023/04/05 11:42:01;;;;;;;15.50;10.20;;;;;;;10.08;79.79;100103.70;108175;1254;73753;-80
2023/04/05 11:44:43;;;;;;;13.30;10.50;;;;;;;10.06;79.79;100106.52;108196;1254;70741;-81
2023/04/05 11:47:20;;;;;;;13.40;10.80;;;;;;;10.06;79.81;100099.42;108123;1259;72347;-80
2023/04/05 11:49:49;;;;;;;12.80;10.40;;;;;;;10.07;79.76;100099.87;108067;1254;60996;-81
2023/04/05 11:52:19;;;;;;;14.70;11.70;;;;;;;10.06;79.84;100094.84;108043;1254;61151;-81
2023/04/05 11:54:48;;;;;;;12.60;11.30;;;;;;;10.07;79.82;100092.86;107943;1254;73978;-81
2023/04/05 11:57:21;;;;;;;15.10;11.30;;;;;;;10.10;79.96;100090.67;108037;1254;73806;-80
2023/04/05 11:59:59;;;;;;;15.70;10.80;;;;;;;10.11;79.77;100087.27;108092;1254;73510;-80
2023/04/05 12:02:43;;;;;;;13.00;10.90;;;;;;;10.13;79.91;100088.02;108069;1255;63210;-85